createdAt,value
2022-10-13T00:00:16.321Z,9.77
2022-10-13T00:02:48.854Z,9.76
2022-10-13T00:05:21.479Z,9.77
2022-10-13T00:07:54.035Z,9.76
2022-10-13T00:10:27.849Z,9.74
2022-10-13T00:13:00.569Z,9.72
2022-10-13T00:15:33.820Z,9.71
2022-10-13T00:18:06.740Z,9.73
2022-10-13T00:20:49.686Z,9.73
2022-10-13T00:23:22.491Z,9.71
2022-10-13T00:25:55.314Z,9.69
2022-10-13T00:28:28.032Z,9.69
2022-10-13T00:31:00.769Z,9.66
2022-10-13T00:33:33.422Z,9.64
2022-10-13T00:36:06.409Z,9.62
2022-10-13T00:38:39.121Z,9.64
2022-10-13T00:41:12.194Z,9.66
2022-10-13T00:43:58.419Z,9.65
2022-10-13T00:46:35.704Z,9.64
2022-10-13T00:49:12.814Z,9.62
2022-10-13T00:51:50.497Z,9.61
2022-10-13T00:54:25.531Z,9.64
2022-10-13T00:56:58.124Z,9.66
2022-10-13T00:59:31.030Z,9.68
2022-10-13T01:02:04.723Z,9.72
2022-10-13T01:04:44.016Z,9.72
2022-10-13T01:07:19.902Z,9.73
2022-10-13T01:09:52.787Z,9.72
2022-10-13T01:12:52.572Z,9.71
2022-10-13T01:15:44.090Z,9.67
2022-10-13T01:18:27.238Z,9.70
2022-10-13T01:21:18.312Z,9.69
2022-10-13T01:24:17.652Z,9.70
2022-10-13T01:27:24.440Z,9.67
2022-10-13T01:30:16.303Z,9.66
2022-10-13T01:33:07.333Z,9.66
2022-10-13T01:35:49.332Z,9.68
2022-10-13T01:38:43.493Z,9.68
2022-10-13T01:41:38.675Z,9.70
2022-10-13T01:44:37.760Z,9.73
2022-10-13T01:47:16.368Z,9.76
2022-10-13T01:49:53.027Z,9.78
2022-10-13T01:52:33.580Z,9.79
2022-10-13T01:55:10.056Z,9.82
2022-10-13T01:57:45.094Z,9.83
2022-10-13T02:00:22.206Z,9.84
2022-10-13T02:03:10.088Z,9.86
2022-10-13T02:06:02.583Z,9.85
2022-10-13T02:09:03.201Z,9.85
2022-10-13T02:11:35.942Z,9.87
2022-10-13T02:14:18.541Z,9.89
2022-10-13T02:16:55.498Z,9.92
2022-10-13T02:19:30.703Z,9.95
2022-10-13T02:22:05.419Z,9.97
2022-10-13T02:24:38.266Z,9.99
2022-10-13T02:27:11.053Z,10.00
2022-10-13T02:29:56.826Z,10.00
2022-10-13T02:32:29.637Z,10.01
2022-10-13T02:35:02.280Z,9.99
2022-10-13T02:37:35.116Z,10.02
2022-10-13T02:40:08.742Z,10.03
2022-10-13T02:42:41.437Z,10.05
2022-10-13T02:45:14.948Z,10.08
2022-10-13T02:47:50.462Z,10.09
2022-10-13T02:50:23.138Z,10.14
2022-10-13T02:52:55.836Z,10.16
2022-10-13T02:55:28.462Z,10.16
2022-10-13T02:58:01.011Z,10.17
2022-10-13T03:00:34.073Z,10.16
2022-10-13T03:03:07.087Z,10.13
2022-10-13T03:05:39.788Z,10.12
2022-10-13T03:08:12.374Z,10.13
2022-10-13T03:10:44.986Z,10.12
2022-10-13T03:13:17.482Z,10.08
2022-10-13T03:15:50.345Z,10.06
2022-10-13T03:18:23.133Z,10.05
2022-10-13T03:21:02.220Z,10.04
2022-10-13T03:23:34.715Z,10.04
2022-10-13T03:26:07.427Z,10.04
2022-10-13T03:28:40.140Z,10.04
2022-10-13T03:31:12.869Z,10.03
2022-10-13T03:33:46.172Z,10.05
2022-10-13T03:36:18.973Z,10.07
2022-10-13T03:38:51.605Z,10.10
2022-10-13T03:41:24.212Z,10.12
2022-10-13T03:43:56.869Z,10.15
2022-10-13T03:46:30.421Z,10.17
2022-10-13T03:49:03.204Z,10.19
2022-10-13T03:51:35.740Z,10.22
2022-10-13T03:54:12.904Z,10.22
2022-10-13T03:56:45.584Z,10.23
2022-10-13T03:59:18.674Z,10.24
2022-10-13T04:01:51.357Z,10.27
2022-10-13T04:04:24.066Z,10.26
2022-10-13T04:06:56.746Z,10.26
2022-10-13T04:09:29.318Z,10.27
2022-10-13T04:12:01.922Z,10.28
2022-10-13T04:14:34.517Z,10.30
2022-10-13T04:17:07.221Z,10.31
2022-10-13T04:19:39.808Z,10.34
2022-10-13T04:22:12.363Z,10.35
2022-10-13T04:24:45.026Z,10.37
2022-10-13T04:27:19.938Z,10.38
2022-10-13T04:29:53.484Z,10.39
2022-10-13T04:32:26.063Z,10.41
2022-10-13T04:34:58.852Z,10.40
2022-10-13T04:37:31.639Z,10.40
2022-10-13T04:40:04.692Z,10.41
2022-10-13T04:42:37.237Z,10.44
2022-10-13T04:45:10.085Z,10.41
2022-10-13T04:47:42.887Z,10.41
2022-10-13T04:50:15.588Z,10.42
2022-10-13T04:52:48.277Z,10.41
2022-10-13T04:55:20.931Z,10.39
2022-10-13T04:57:53.583Z,10.41
2022-10-13T05:00:26.425Z,10.40
2022-10-13T05:02:59.313Z,10.38
2022-10-13T05:05:35.449Z,10.36
2022-10-13T05:08:08.018Z,10.32
2022-10-13T05:10:40.812Z,10.31
2022-10-13T05:13:13.340Z,10.33
2022-10-13T05:15:45.954Z,10.31
2022-10-13T05:18:18.601Z,10.32
2022-10-13T05:20:51.179Z,10.33
2022-10-13T05:23:23.836Z,10.33
2022-10-13T05:25:56.434Z,10.34
2022-10-13T05:28:29.547Z,10.32
2022-10-13T05:31:10.141Z,10.28
2022-10-13T05:33:45.518Z,10.29
2022-10-13T05:36:33.975Z,10.29
2022-10-13T05:39:10.168Z,10.24
2022-10-13T05:41:42.669Z,10.25
2022-10-13T05:44:17.350Z,10.24
2022-10-13T05:46:49.898Z,10.23
2022-10-13T05:49:22.476Z,10.19
2022-10-13T05:52:04.397Z,10.22
2022-10-13T05:54:48.250Z,10.23
2022-10-13T05:57:26.159Z,10.24
2022-10-13T06:00:04.995Z,10.22
2022-10-13T06:03:11.369Z,10.25
2022-10-13T06:05:47.473Z,10.29
2022-10-13T06:08:20.051Z,10.32
2022-10-13T06:10:52.675Z,10.37
2022-10-13T06:13:25.252Z,10.40
2022-10-13T06:15:57.743Z,10.44
2022-10-13T06:18:30.315Z,10.47
2022-10-13T06:21:02.985Z,10.51
2022-10-13T06:23:35.446Z,10.53
2022-10-13T06:26:11.184Z,10.54
2022-10-13T06:28:49.016Z,10.54
2022-10-13T06:31:22.583Z,10.59
2022-10-13T06:33:55.174Z,10.62
2022-10-13T06:36:28.001Z,10.63
2022-10-13T06:39:00.486Z,10.66
2022-10-13T06:41:32.963Z,10.70
2022-10-13T06:44:05.600Z,10.70
2022-10-13T06:46:38.124Z,10.76
2022-10-13T06:49:10.596Z,10.77
2022-10-13T06:51:43.093Z,10.83
2022-10-13T06:54:16.623Z,10.86
2022-10-13T06:56:49.153Z,10.90
2022-10-13T06:59:21.882Z,10.96
2022-10-13T07:01:54.465Z,11.00
2022-10-13T07:04:28.177Z,11.00
2022-10-13T07:07:00.706Z,11.00
2022-10-13T07:09:33.170Z,11.02
2022-10-13T07:12:07.413Z,11.06
2022-10-13T07:14:43.034Z,11.05
2022-10-13T07:17:16.564Z,11.04
2022-10-13T07:19:49.221Z,11.00
2022-10-13T07:22:21.698Z,11.07
2022-10-13T07:24:54.171Z,11.06
2022-10-13T07:27:28.099Z,11.19
2022-10-13T07:30:00.550Z,11.20
2022-10-13T07:32:33.428Z,11.31
2022-10-13T07:35:06.074Z,11.30
2022-10-13T07:37:39.278Z,11.39
2022-10-13T07:40:12.060Z,11.45
2022-10-13T07:42:44.561Z,11.47
2022-10-13T07:45:17.389Z,11.48
2022-10-13T07:47:50.055Z,11.57
2022-10-13T07:50:23.145Z,11.68
2022-10-13T07:52:55.711Z,11.77
2022-10-13T07:55:28.272Z,11.90
2022-10-13T07:58:04.245Z,12.00
2022-10-13T08:00:37.174Z,12.16
2022-10-13T08:03:09.663Z,12.25
2022-10-13T08:05:42.374Z,12.37
2022-10-13T08:08:14.848Z,12.50
2022-10-13T08:10:48.190Z,12.52
2022-10-13T08:13:21.301Z,12.51
2022-10-13T08:15:53.830Z,12.47
2022-10-13T08:18:26.522Z,12.43
2022-10-13T08:21:33.098Z,12.52
2022-10-13T08:23:56.026Z,12.55
2022-10-13T08:26:29.138Z,12.57
2022-10-13T08:29:21.912Z,12.67
2022-10-13T08:31:54.826Z,12.81
2022-10-13T08:34:27.343Z,12.90
2022-10-13T08:37:00.233Z,12.94
2022-10-13T08:39:32.759Z,13.05
2022-10-13T08:42:18.386Z,13.19
2022-10-13T08:45:40.459Z,13.18
2022-10-13T08:48:22.388Z,13.26
2022-10-13T08:50:59.714Z,13.10
2022-10-13T08:53:45.063Z,13.13
2022-10-13T08:56:27.770Z,13.19
2022-10-13T08:59:04.398Z,13.23
2022-10-13T09:01:37.254Z,13.18
2022-10-13T09:04:27.859Z,13.32
2022-10-13T09:07:09.561Z,13.37
2022-10-13T09:09:42.536Z,13.39
2022-10-13T09:12:15.786Z,13.37
2022-10-13T09:15:09.841Z,13.28
2022-10-13T09:17:42.414Z,13.17
2022-10-13T09:20:29.518Z,13.18
2022-10-13T09:23:25.576Z,12.98
2022-10-13T09:26:06.404Z,12.93
2022-10-13T09:28:39.402Z,12.98
2022-10-13T09:31:28.772Z,13.07
2022-10-13T09:34:14.082Z,13.05
2022-10-13T09:37:06.375Z,13.21
2022-10-13T09:39:38.887Z,13.21
2022-10-13T09:42:30.213Z,13.30
2022-10-13T09:45:16.872Z,13.31
2022-10-13T09:48:06.622Z,13.24
2022-10-13T09:50:50.629Z,13.22
2022-10-13T09:53:34.747Z,13.04
2022-10-13T09:56:22.490Z,13.05
2022-10-13T09:59:41.445Z,13.06
2022-10-13T10:03:07.592Z,12.91
2022-10-13T10:05:48.158Z,12.83
2022-10-13T10:09:02.683Z,12.82
2022-10-13T10:11:48.206Z,12.77
2022-10-13T10:14:28.894Z,12.76
2022-10-13T10:17:33.408Z,12.77
2022-10-13T10:20:29.966Z,12.74
2022-10-13T10:23:34.698Z,12.80
2022-10-13T10:26:30.158Z,12.77
2022-10-13T10:29:20.199Z,12.64
2022-10-13T10:32:49.243Z,12.74
2022-10-13T10:35:46.475Z,12.70
2022-10-13T10:38:46.065Z,12.80
2022-10-13T10:42:02.975Z,12.95
2022-10-13T10:44:47.844Z,12.97
2022-10-13T10:47:42.261Z,13.10
2022-10-13T10:50:18.762Z,13.23
2022-10-13T10:53:13.459Z,13.33
2022-10-13T10:56:09.501Z,13.46
2022-10-13T10:59:07.873Z,13.46
2022-10-13T11:02:08.838Z,13.53
2022-10-13T11:04:48.539Z,13.55
2022-10-13T11:07:24.074Z,13.40
2022-10-13T11:09:57.237Z,13.48
2022-10-13T11:12:52.917Z,13.54
2022-10-13T11:15:46.991Z,13.61
2022-10-13T11:19:05.920Z,13.68
2022-10-13T11:21:53.762Z,13.38
2022-10-13T11:24:41.604Z,13.49
2022-10-13T11:27:14.365Z,13.27
2022-10-13T11:29:47.084Z,13.31
2022-10-13T11:32:25.905Z,13.37
2022-10-13T11:35:10.156Z,13.42
2022-10-13T11:38:18.049Z,13.36
2022-10-13T11:41:17.057Z,13.40
2022-10-13T11:44:49.952Z,13.24
2022-10-13T11:47:55.780Z,13.27
2022-10-13T11:50:52.569Z,13.24
2022-10-13T11:53:39.629Z,13.21
2022-10-13T11:56:48.688Z,13.16
2022-10-13T11:59:37.632Z,13.02
2022-10-13T12:02:10.189Z,13.10
2022-10-13T12:05:01.073Z,13.01
2022-10-13T12:07:39.345Z,13.04
2022-10-13T12:10:33.529Z,13.06
2022-10-13T12:13:07.389Z,13.07
2022-10-13T12:15:44.708Z,13.10
2022-10-13T12:18:30.031Z,13.08
2022-10-13T12:21:20.952Z,13.13
2022-10-13T12:24:08.869Z,13.16
2022-10-13T12:26:41.812Z,13.08
2022-10-13T12:29:15.598Z,13.06
2022-10-13T12:31:50.986Z,13.06
2022-10-13T12:34:30.902Z,12.97
2022-10-13T12:37:14.935Z,12.89
2022-10-13T12:39:48.435Z,12.83
2022-10-13T12:42:30.376Z,12.79
2022-10-13T12:45:04.719Z,12.78
2022-10-13T12:47:44.598Z,12.80
2022-10-13T12:50:30.188Z,12.81
2022-10-13T12:53:08.934Z,12.73
2022-10-13T12:56:04.449Z,12.71
2022-10-13T12:58:42.534Z,12.71
2022-10-13T13:01:36.231Z,12.83
2022-10-13T13:04:20.928Z,12.98
2022-10-13T13:07:03.023Z,12.99
2022-10-13T13:09:38.784Z,13.12
2022-10-13T13:12:11.161Z,13.07
2022-10-13T13:14:49.550Z,13.22
2022-10-13T13:17:52.842Z,13.30
2022-10-13T13:20:25.736Z,13.27
2022-10-13T13:22:59.344Z,13.19
2022-10-13T13:25:32.034Z,13.09
2022-10-13T13:28:12.759Z,13.00
2022-10-13T13:30:45.429Z,12.91
2022-10-13T13:33:17.987Z,12.87
2022-10-13T13:35:51.841Z,12.85
2022-10-13T13:38:24.356Z,12.83
2022-10-13T13:41:00.126Z,12.86
2022-10-13T13:43:35.787Z,12.86
2022-10-13T13:46:17.917Z,12.88
2022-10-13T13:48:50.765Z,12.89
2022-10-13T13:51:23.381Z,12.95
2022-10-13T13:53:56.746Z,13.00
2022-10-13T13:56:29.422Z,12.96
2022-10-13T13:59:01.912Z,12.96
2022-10-13T14:01:34.487Z,13.04
2022-10-13T14:04:07.040Z,12.98
2022-10-13T14:06:39.668Z,13.06
2022-10-13T14:09:12.319Z,13.14
2022-10-13T14:11:44.862Z,13.21
2022-10-13T14:14:17.346Z,13.17
2022-10-13T14:16:50.000Z,13.27
2022-10-13T14:19:22.628Z,13.37
2022-10-13T14:21:57.752Z,13.46
2022-10-13T14:24:30.462Z,13.37
2022-10-13T14:27:03.082Z,13.47
2022-10-13T14:29:36.892Z,13.42
2022-10-13T14:32:09.443Z,13.50
2022-10-13T14:34:42.772Z,13.39
2022-10-13T14:37:15.301Z,13.45
2022-10-13T14:39:47.787Z,13.42
2022-10-13T14:42:20.357Z,13.36
2022-10-13T14:44:52.861Z,13.27
2022-10-13T14:47:25.378Z,13.26
2022-10-13T14:49:57.994Z,13.24
2022-10-13T14:52:30.530Z,13.26
2022-10-13T14:55:03.434Z,13.26
2022-10-13T14:57:35.991Z,13.27
2022-10-13T15:00:10.708Z,13.27
2022-10-13T15:02:43.253Z,13.26
2022-10-13T15:05:15.877Z,13.22
2022-10-13T15:07:48.330Z,13.23
2022-10-13T15:10:20.858Z,13.25
2022-10-13T15:12:53.363Z,13.30
2022-10-13T15:15:25.927Z,13.22
2022-10-13T15:17:58.517Z,13.27
2022-10-13T15:20:31.006Z,13.22
2022-10-13T15:23:03.508Z,13.23
2022-10-13T15:25:35.974Z,13.20
2022-10-13T15:28:08.467Z,13.18
2022-10-13T15:30:40.938Z,13.23
2022-10-13T15:33:13.630Z,13.17
2022-10-13T15:35:51.362Z,13.16
2022-10-13T15:38:23.964Z,13.17
2022-10-13T15:41:01.147Z,13.09
2022-10-13T15:43:34.623Z,13.16
2022-10-13T15:46:12.651Z,13.12
2022-10-13T15:48:45.264Z,13.06
2022-10-13T15:51:22.194Z,12.98
2022-10-13T15:53:55.246Z,12.94
2022-10-13T15:56:27.767Z,12.95
2022-10-13T15:59:00.469Z,12.90
2022-10-13T16:01:33.992Z,12.90
2022-10-13T16:04:06.482Z,12.85
2022-10-13T16:06:39.025Z,12.82
2022-10-13T16:09:11.602Z,12.83
2022-10-13T16:11:44.098Z,12.76
2022-10-13T16:14:16.633Z,12.78
2022-10-13T16:16:49.285Z,12.68
2022-10-13T16:19:21.916Z,12.71
2022-10-13T16:21:54.408Z,12.73
2022-10-13T16:24:26.945Z,12.77
2022-10-13T16:26:59.862Z,12.74
2022-10-13T16:29:32.587Z,12.65
2022-10-13T16:32:05.210Z,12.60
2022-10-13T16:34:38.021Z,12.63
2022-10-13T16:37:10.466Z,12.57
2022-10-13T16:39:46.514Z,12.55
2022-10-13T16:42:21.597Z,12.55
2022-10-13T16:44:54.220Z,12.51
2022-10-13T16:47:26.730Z,12.51
2022-10-13T16:49:59.275Z,12.50
2022-10-13T16:52:31.854Z,12.49
2022-10-13T16:55:06.042Z,12.43
2022-10-13T16:57:38.545Z,12.47
2022-10-13T17:00:12.530Z,12.44
2022-10-13T17:02:45.023Z,12.48
2022-10-13T17:05:17.652Z,12.46
2022-10-13T17:07:51.941Z,12.44
2022-10-13T17:10:24.644Z,12.39
2022-10-13T17:12:57.238Z,12.41
2022-10-13T17:15:29.837Z,12.40
2022-10-13T17:18:04.272Z,12.36
2022-10-13T17:20:36.831Z,12.34
2022-10-13T17:23:09.575Z,12.31
2022-10-13T17:25:42.049Z,12.35
2022-10-13T17:28:15.951Z,12.29
2022-10-13T17:31:03.962Z,12.30
2022-10-13T17:33:39.007Z,12.30
2022-10-13T17:36:26.864Z,12.27
2022-10-13T17:39:05.858Z,12.21
2022-10-13T17:41:38.399Z,12.20
2022-10-13T17:44:11.635Z,12.18
2022-10-13T17:46:44.158Z,12.14
2022-10-13T17:49:17.321Z,12.11
2022-10-13T17:51:53.857Z,12.04
2022-10-13T17:54:26.323Z,12.06
2022-10-13T17:56:58.848Z,12.06
2022-10-13T17:59:31.367Z,12.06
2022-10-13T18:02:04.023Z,12.05
2022-10-13T18:04:36.648Z,12.06
2022-10-13T18:07:09.338Z,12.04
2022-10-13T18:09:41.997Z,11.99
2022-10-13T18:12:14.584Z,11.99
2022-10-13T18:14:47.143Z,11.97
2022-10-13T18:17:20.114Z,11.99
2022-10-13T18:19:53.763Z,11.96
2022-10-13T18:22:26.302Z,11.98
2022-10-13T18:24:58.898Z,11.96
2022-10-13T18:27:31.542Z,11.93
2022-10-13T18:30:04.656Z,11.91
2022-10-13T18:32:37.159Z,11.93
2022-10-13T18:35:09.765Z,11.94
2022-10-13T18:37:42.439Z,11.96
2022-10-13T18:40:15.038Z,11.97
2022-10-13T18:42:51.689Z,11.98
2022-10-13T18:45:27.257Z,12.08
2022-10-13T18:47:59.778Z,12.12
2022-10-13T18:50:36.784Z,12.19
2022-10-13T18:53:09.292Z,12.14
2022-10-13T18:55:43.676Z,12.17
2022-10-13T18:58:16.191Z,12.16
2022-10-13T19:00:48.835Z,12.19
2022-10-13T19:03:21.405Z,12.11
2022-10-13T19:05:54.023Z,12.14
2022-10-13T19:08:29.106Z,12.11
2022-10-13T19:11:09.542Z,12.07
2022-10-13T19:13:42.778Z,12.09
2022-10-13T19:16:21.250Z,12.08
2022-10-13T19:18:53.870Z,12.07
2022-10-13T19:21:26.699Z,12.06
2022-10-13T19:24:00.209Z,12.07
2022-10-13T19:26:35.805Z,12.08
2022-10-13T19:29:12.309Z,12.10
2022-10-13T19:31:45.046Z,12.16
2022-10-13T19:34:17.849Z,12.17
2022-10-13T19:36:50.491Z,12.20
2022-10-13T19:39:25.825Z,12.27
2022-10-13T19:41:58.575Z,12.26
2022-10-13T19:44:31.311Z,12.40
2022-10-13T19:47:03.856Z,12.50
2022-10-13T19:49:36.454Z,12.59
2022-10-13T19:52:09.179Z,12.35
2022-10-13T19:54:41.812Z,12.28
2022-10-13T19:57:14.374Z,12.44
2022-10-13T19:59:47.931Z,12.64
2022-10-13T20:02:20.510Z,12.57
2022-10-13T20:04:53.090Z,12.63
2022-10-13T20:07:25.713Z,12.65
2022-10-13T20:09:58.272Z,12.67
2022-10-13T20:12:30.857Z,12.67
2022-10-13T20:15:03.732Z,12.70
2022-10-13T20:17:36.314Z,12.61
2022-10-13T20:20:09.219Z,12.67
2022-10-13T20:22:41.818Z,12.60
2022-10-13T20:25:15.839Z,12.62
2022-10-13T20:27:48.393Z,12.58
2022-10-13T20:30:20.959Z,12.60
2022-10-13T20:32:53.526Z,12.64
2022-10-13T20:35:26.072Z,12.48
2022-10-13T20:37:58.654Z,12.59
2022-10-13T20:40:31.926Z,12.65
2022-10-13T20:43:04.447Z,12.67
2022-10-13T20:45:37.082Z,12.63
2022-10-13T20:48:09.598Z,12.60
2022-10-13T20:50:42.241Z,12.67
2022-10-13T20:53:14.839Z,12.70
2022-10-13T20:55:58.733Z,12.67
2022-10-13T20:58:34.514Z,12.56
2022-10-13T21:01:07.513Z,12.65
2022-10-13T21:03:40.539Z,12.60
2022-10-13T21:06:14.795Z,12.68
2022-10-13T21:08:47.535Z,12.66
2022-10-13T21:11:23.122Z,12.63
2022-10-13T21:13:55.691Z,12.63
2022-10-13T21:16:28.999Z,12.70
2022-10-13T21:19:02.304Z,12.69
2022-10-13T21:21:36.056Z,12.68
2022-10-13T21:24:09.791Z,12.69
2022-10-13T21:26:42.346Z,12.66
2022-10-13T21:29:15.337Z,12.68
2022-10-13T21:31:47.934Z,12.72
2022-10-13T21:34:20.726Z,12.73
2022-10-13T21:36:53.210Z,12.73
2022-10-13T21:39:25.826Z,12.74
2022-10-13T21:41:58.430Z,12.70
2022-10-13T21:44:31.060Z,12.66
2022-10-13T21:47:03.909Z,12.58
2022-10-13T21:49:36.581Z,12.71
2022-10-13T21:52:09.086Z,12.67
2022-10-13T21:54:41.865Z,12.68
2022-10-13T21:57:14.553Z,12.67
2022-10-13T21:59:47.650Z,12.71
2022-10-13T22:02:20.153Z,12.73
2022-10-13T22:04:52.682Z,12.74
2022-10-13T22:07:25.361Z,12.74
2022-10-13T22:09:58.006Z,12.74
2022-10-13T22:12:30.496Z,12.70
2022-10-13T22:15:04.220Z,12.71
2022-10-13T22:17:36.795Z,12.72
2022-10-13T22:20:09.473Z,12.72
2022-10-13T22:22:41.975Z,12.72
2022-10-13T22:25:14.770Z,12.65
2022-10-13T22:27:47.350Z,12.65
2022-10-13T22:30:19.896Z,12.66
2022-10-13T22:32:52.494Z,12.69
2022-10-13T22:35:24.973Z,12.71
2022-10-13T22:37:57.489Z,12.72
2022-10-13T22:40:30.730Z,12.71
2022-10-13T22:43:03.266Z,12.70
2022-10-13T22:45:35.910Z,12.71
2022-10-13T22:48:11.164Z,12.62
2022-10-13T22:50:44.748Z,12.78
2022-10-13T22:53:17.303Z,12.42
2022-10-13T22:55:49.945Z,12.37
2022-10-13T22:58:22.476Z,12.11
2022-10-13T23:00:55.034Z,12.81
2022-10-13T23:03:27.567Z,12.46
2022-10-13T23:06:00.511Z,12.56
2022-10-13T23:08:34.713Z,12.12
2022-10-13T23:11:07.530Z,12.09
2022-10-13T23:13:40.439Z,12.04
2022-10-13T23:16:20.652Z,12.59
2022-10-13T23:18:54.408Z,12.64
2022-10-13T23:21:29.524Z,12.58
2022-10-13T23:24:06.024Z,12.62
2022-10-13T23:26:38.628Z,12.65
2022-10-13T23:29:11.222Z,12.64
2022-10-13T23:31:43.746Z,12.65
2022-10-13T23:34:16.393Z,12.72
2022-10-13T23:36:48.983Z,12.71
2022-10-13T23:39:21.555Z,12.68
2022-10-13T23:41:54.029Z,12.75
2022-10-13T23:44:26.649Z,12.74
2022-10-13T23:46:59.172Z,12.80
2022-10-13T23:49:31.733Z,12.83
2022-10-13T23:52:09.987Z,12.85
2022-10-13T23:54:43.429Z,12.87
2022-10-13T23:57:15.941Z,12.91
2022-10-13T23:59:48.471Z,12.96
